sensor_id;sensor_type;location;lat;lon;timestamp;temperature;humidity
5639;DHT22;2841;44.526;11.360;2022-12-07T00:01:44;6.80;99.90
5639;DHT22;2841;44.526;11.360;2022-12-07T00:04:13;6.80;99.90
5639;DHT22;2841;44.526;11.360;2022-12-07T00:06:42;6.80;99.90
5639;DHT22;2841;44.526;11.360;2022-12-07T00:09:12;6.80;99.90
5639;DHT22;2841;44.526;11.360;2022-12-07T00:11:42;6.80;99.90
5639;DHT22;2841;44.526;11.360;2022-12-07T00:14:11;6.70;99.90
5639;DHT22;2841;44.526;11.360;2022-12-07T00:16:39;6.70;99.90
5639;DHT22;2841;44.526;11.360;2022-12-07T00:19:06;6.60;99.90
5639;DHT22;2841;44.526;11.360;2022-12-07T00:21:34;6.50;99.90
5639;DHT22;2841;44.526;11.360;2022-12-07T00:24:03;6.40;99.90
5639;DHT22;2841;44.526;11.360;2022-12-07T00:26:32;6.50;99.90
5639;DHT22;2841;44.526;11.360;2022-12-07T00:29:04;6.40;99.90
5639;DHT22;2841;44.526;11.360;2022-12-07T00:31:32;6.40;99.90
5639;DHT22;2841;44.526;11.360;2022-12-07T00:34:00;6.40;99.90
5639;DHT22;2841;44.526;11.360;2022-12-07T00:36:27;6.40;99.90
5639;DHT22;2841;44.526;11.360;2022-12-07T00:38:56;6.40;99.90
5639;DHT22;2841;44.526;11.360;2022-12-07T00:41:25;6.30;99.90
5639;DHT22;2841;44.526;11.360;2022-12-07T00:43:53;6.40;99.90
5639;DHT22;2841;44.526;11.360;2022-12-07T00:46:22;6.40;99.90
5639;DHT22;2841;44.526;11.360;2022-12-07T00:48:51;6.40;99.90
5639;DHT22;2841;44.526;11.360;2022-12-07T00:51:19;6.40;99.90
5639;DHT22;2841;44.526;11.360;2022-12-07T00:53:47;6.40;99.90
5639;DHT22;2841;44.526;11.360;2022-12-07T00:56:17;6.40;99.90
5639;DHT22;2841;44.526;11.360;2022-12-07T00:58:49;6.40;99.90
5639;DHT22;2841;44.526;11.360;2022-12-07T01:01:17;6.40;99.90
5639;DHT22;2841;44.526;11.360;2022-12-07T01:03:45;6.40;99.90
5639;DHT22;2841;44.526;11.360;2022-12-07T01:06:14;6.40;99.90
5639;DHT22;2841;44.526;11.360;2022-12-07T01:08:42;6.30;99.90
5639;DHT22;2841;44.526;11.360;2022-12-07T01:11:12;6.30;99.90
5639;DHT22;2841;44.526;11.360;2022-12-07T01:13:40;6.20;99.90
5639;DHT22;2841;44.526;11.360;2022-12-07T01:16:09;6.30;99.90
5639;DHT22;2841;44.526;11.360;2022-12-07T01:18:37;6.30;99.90
5639;DHT22;2841;44.526;11.360;2022-12-07T01:21:07;6.30;99.90
5639;DHT22;2841;44.526;11.360;2022-12-07T01:23:35;6.30;99.90
5639;DHT22;2841;44.526;11.360;2022-12-07T01:26:05;6.20;99.90
5639;DHT22;2841;44.526;11.360;2022-12-07T01:28:32;6.20;99.90
5639;DHT22;2841;44.526;11.360;2022-12-07T01:31:01;6.20;99.90
5639;DHT22;2841;44.526;11.360;2022-12-07T01:33:30;6.20;99.90
5639;DHT22;2841;44.526;11.360;2022-12-07T01:36:02;6.20;99.90
5639;DHT22;2841;44.526;11.360;2022-12-07T01:38:31;6.10;99.90
5639;DHT22;2841;44.526;11.360;2022-12-07T01:40:59;6.10;99.90
5639;DHT22;2841;44.526;11.360;2022-12-07T01:43:28;6.10;99.90
5639;DHT22;2841;44.526;11.360;2022-12-07T01:45:56;6.10;99.90
5639;DHT22;2841;44.526;11.360;2022-12-07T01:48:26;6.10;99.90
5639;DHT22;2841;44.526;11.360;2022-12-07T01:50:56;6.10;99.90
5639;DHT22;2841;44.526;11.360;2022-12-07T01:53:28;6.10;99.90
5639;DHT22;2841;44.526;11.360;2022-12-07T01:55:58;6.10;99.90
5639;DHT22;2841;44.526;11.360;2022-12-07T01:58:26;6.10;99.90
5639;DHT22;2841;44.526;11.360;2022-12-07T02:00:53;6.00;99.90
5639;DHT22;2841;44.526;11.360;2022-12-07T02:03:24;6.00;99.90
5639;DHT22;2841;44.526;11.360;2022-12-07T02:05:53;6.00;99.90
5639;DHT22;2841;44.526;11.360;2022-12-07T02:08:21;6.00;99.90
5639;DHT22;2841;44.526;11.360;2022-12-07T02:10:48;5.90;99.90
5639;DHT22;2841;44.526;11.360;2022-12-07T02:13:19;5.90;99.90
5639;DHT22;2841;44.526;11.360;2022-12-07T02:16:05;6.00;99.90
5639;DHT22;2841;44.526;11.360;2022-12-07T02:18:44;6.00;99.90
5639;DHT22;2841;44.526;11.360;2022-12-07T02:21:19;6.00;99.90
5639;DHT22;2841;44.526;11.360;2022-12-07T02:24:05;6.00;99.90
5639;DHT22;2841;44.526;11.360;2022-12-07T02:27:01;6.00;99.90
5639;DHT22;2841;44.526;11.360;2022-12-07T02:29:39;6.00;99.90
5639;DHT22;2841;44.526;11.360;2022-12-07T02:32:13;6.00;99.90
5639;DHT22;2841;44.526;11.360;2022-12-07T02:34:46;6.00;99.90
5639;DHT22;2841;44.526;11.360;2022-12-07T02:37:27;6.00;99.90
5639;DHT22;2841;44.526;11.360;2022-12-07T02:39:59;6.00;99.90
5639;DHT22;2841;44.526;11.360;2022-12-07T02:42:32;6.00;99.90
5639;DHT22;2841;44.526;11.360;2022-12-07T02:45:02;6.00;99.90
5639;DHT22;2841;44.526;11.360;2022-12-07T02:47:32;6.10;99.90
5639;DHT22;2841;44.526;11.360;2022-12-07T02:50:03;6.10;99.90
5639;DHT22;2841;44.526;11.360;2022-12-07T02:52:30;6.10;99.90
5639;DHT22;2841;44.526;11.360;2022-12-07T02:54:58;6.10;99.90
5639;DHT22;2841;44.526;11.360;2022-12-07T02:57:40;6.00;99.90
5639;DHT22;2841;44.526;11.360;2022-12-07T03:00:11;5.90;99.90
5639;DHT22;2841;44.526;11.360;2022-12-07T03:02:48;5.90;99.90
5639;DHT22;2841;44.526;11.360;2022-12-07T03:05:31;6.00;99.90
5639;DHT22;2841;44.526;11.360;2022-12-07T03:08:04;6.00;99.90
5639;DHT22;2841;44.526;11.360;2022-12-07T03:10:35;6.00;99.90
5639;DHT22;2841;44.526;11.360;2022-12-07T03:13:10;6.00;99.90
5639;DHT22;2841;44.526;11.360;2022-12-07T03:15:45;6.00;99.90
5639;DHT22;2841;44.526;11.360;2022-12-07T03:18:15;6.00;99.90
5639;DHT22;2841;44.526;11.360;2022-12-07T03:20:44;6.00;99.90
5639;DHT22;2841;44.526;11.360;2022-12-07T03:23:13;6.00;99.90
5639;DHT22;2841;44.526;11.360;2022-12-07T03:25:45;6.10;99.90
5639;DHT22;2841;44.526;11.360;2022-12-07T03:28:16;6.00;99.90
5639;DHT22;2841;44.526;11.360;2022-12-07T03:30:49;6.00;99.90
5639;DHT22;2841;44.526;11.360;2022-12-07T03:33:21;6.00;99.90
5639;DHT22;2841;44.526;11.360;2022-12-07T03:35:53;6.00;99.90
5639;DHT22;2841;44.526;11.360;2022-12-07T03:38:23;6.10;99.90
5639;DHT22;2841;44.526;11.360;2022-12-07T03:40:57;6.10;99.90
5639;DHT22;2841;44.526;11.360;2022-12-07T03:43:28;6.00;99.90
5639;DHT22;2841;44.526;11.360;2022-12-07T03:46:02;6.00;99.90
5639;DHT22;2841;44.526;11.360;2022-12-07T03:48:35;5.90;99.90
5639;DHT22;2841;44.526;11.360;2022-12-07T03:51:10;6.00;99.90
5639;DHT22;2841;44.526;11.360;2022-12-07T03:53:42;6.00;99.90
5639;DHT22;2841;44.526;11.360;2022-12-07T03:56:11;6.10;99.90
5639;DHT22;2841;44.526;11.360;2022-12-07T03:58:39;6.10;99.90
5639;DHT22;2841;44.526;11.360;2022-12-07T04:01:08;6.10;99.90
5639;DHT22;2841;44.526;11.360;2022-12-07T04:03:36;6.10;99.90
5639;DHT22;2841;44.526;11.360;2022-12-07T04:06:04;6.10;99.90
5639;DHT22;2841;44.526;11.360;2022-12-07T04:08:31;6.10;99.90
5639;DHT22;2841;44.526;11.360;2022-12-07T04:10:58;6.10;99.90
5639;DHT22;2841;44.526;11.360;2022-12-07T04:13:25;6.10;99.90
5639;DHT22;2841;44.526;11.360;2022-12-07T04:15:52;6.10;99.90
5639;DHT22;2841;44.526;11.360;2022-12-07T04:18:21;6.10;99.90
5639;DHT22;2841;44.526;11.360;2022-12-07T04:20:48;6.10;99.90
5639;DHT22;2841;44.526;11.360;2022-12-07T04:23:15;6.10;99.90
5639;DHT22;2841;44.526;11.360;2022-12-07T04:25:42;6.10;99.90
5639;DHT22;2841;44.526;11.360;2022-12-07T04:28:09;6.10;99.90
5639;DHT22;2841;44.526;11.360;2022-12-07T04:30:36;6.10;99.90
5639;DHT22;2841;44.526;11.360;2022-12-07T04:33:03;6.10;99.90
5639;DHT22;2841;44.526;11.360;2022-12-07T04:35:32;6.10;99.90
5639;DHT22;2841;44.526;11.360;2022-12-07T04:37:59;6.10;99.90
5639;DHT22;2841;44.526;11.360;2022-12-07T04:40:26;6.10;99.90
5639;DHT22;2841;44.526;11.360;2022-12-07T04:42:53;6.10;99.90
5639;DHT22;2841;44.526;11.360;2022-12-07T04:45:20;6.10;99.90
5639;DHT22;2841;44.526;11.360;2022-12-07T04:47:47;6.20;99.90
5639;DHT22;2841;44.526;11.360;2022-12-07T04:50:14;6.10;99.90
5639;DHT22;2841;44.526;11.360;2022-12-07T04:52:43;6.10;99.90
5639;DHT22;2841;44.526;11.360;2022-12-07T04:55:10;6.10;99.90
5639;DHT22;2841;44.526;11.360;2022-12-07T04:57:37;6.10;99.90
5639;DHT22;2841;44.526;11.360;2022-12-07T05:00:05;6.10;99.90
5639;DHT22;2841;44.526;11.360;2022-12-07T05:02:33;6.20;99.90
5639;DHT22;2841;44.526;11.360;2022-12-07T05:05:00;6.20;99.90
5639;DHT22;2841;44.526;11.360;2022-12-07T05:07:27;6.20;99.90
5639;DHT22;2841;44.526;11.360;2022-12-07T05:09:56;6.20;99.90
5639;DHT22;2841;44.526;11.360;2022-12-07T05:12:23;6.20;99.90
5639;DHT22;2841;44.526;11.360;2022-12-07T05:14:50;6.20;99.90
5639;DHT22;2841;44.526;11.360;2022-12-07T05:17:17;6.20;99.90
5639;DHT22;2841;44.526;11.360;2022-12-07T05:19:44;6.10;99.90
5639;DHT22;2841;44.526;11.360;2022-12-07T05:22:11;6.20;99.90
5639;DHT22;2841;44.526;11.360;2022-12-07T05:24:39;6.30;99.90
5639;DHT22;2841;44.526;11.360;2022-12-07T05:27:07;6.30;99.90
5639;DHT22;2841;44.526;11.360;2022-12-07T05:29:34;6.20;99.90
5639;DHT22;2841;44.526;11.360;2022-12-07T05:32:01;6.20;99.90
5639;DHT22;2841;44.526;11.360;2022-12-07T05:34:28;6.20;99.90
5639;DHT22;2841;44.526;11.360;2022-12-07T05:36:55;6.30;99.90
5639;DHT22;2841;44.526;11.360;2022-12-07T05:39:22;6.40;99.90
5639;DHT22;2841;44.526;11.360;2022-12-07T05:41:49;6.40;99.90
5639;DHT22;2841;44.526;11.360;2022-12-07T05:44:35;6.50;99.90
5639;DHT22;2841;44.526;11.360;2022-12-07T05:47:03;6.60;99.90
5639;DHT22;2841;44.526;11.360;2022-12-07T05:49:30;6.60;99.90
5639;DHT22;2841;44.526;11.360;2022-12-07T05:51:57;6.60;99.90
5639;DHT22;2841;44.526;11.360;2022-12-07T05:54:25;6.60;99.90
5639;DHT22;2841;44.526;11.360;2022-12-07T05:56:52;6.60;99.90
5639;DHT22;2841;44.526;11.360;2022-12-07T05:59:19;6.60;99.90
5639;DHT22;2841;44.526;11.360;2022-12-07T06:01:50;6.60;99.90
5639;DHT22;2841;44.526;11.360;2022-12-07T06:04:17;6.60;99.90
5639;DHT22;2841;44.526;11.360;2022-12-07T06:06:45;6.70;99.90
5639;DHT22;2841;44.526;11.360;2022-12-07T06:09:12;6.70;99.90
5639;DHT22;2841;44.526;11.360;2022-12-07T06:11:40;6.60;99.90
5639;DHT22;2841;44.526;11.360;2022-12-07T06:14:25;6.60;99.90
5639;DHT22;2841;44.526;11.360;2022-12-07T06:16:53;6.60;99.90
5639;DHT22;2841;44.526;11.360;2022-12-07T06:19:20;6.60;99.90
5639;DHT22;2841;44.526;11.360;2022-12-07T06:21:47;6.60;99.90
5639;DHT22;2841;44.526;11.360;2022-12-07T06:24:16;6.60;99.90
5639;DHT22;2841;44.526;11.360;2022-12-07T06:26:43;6.60;99.90
5639;DHT22;2841;44.526;11.360;2022-12-07T06:29:11;6.60;99.90
5639;DHT22;2841;44.526;11.360;2022-12-07T06:31:38;6.60;99.90
5639;DHT22;2841;44.526;11.360;2022-12-07T06:34:10;6.60;99.90
5639;DHT22;2841;44.526;11.360;2022-12-07T06:36:37;6.60;99.90
5639;DHT22;2841;44.526;11.360;2022-12-07T06:39:05;6.60;99.90
5639;DHT22;2841;44.526;11.360;2022-12-07T06:41:34;6.60;99.90
5639;DHT22;2841;44.526;11.360;2022-12-07T06:44:01;6.60;99.90
5639;DHT22;2841;44.526;11.360;2022-12-07T06:46:28;6.60;99.90
5639;DHT22;2841;44.526;11.360;2022-12-07T06:48:55;6.60;99.90
5639;DHT22;2841;44.526;11.360;2022-12-07T06:51:24;6.50;99.90
5639;DHT22;2841;44.526;11.360;2022-12-07T06:53:51;6.60;99.90
5639;DHT22;2841;44.526;11.360;2022-12-07T06:56:19;6.60;99.90
5639;DHT22;2841;44.526;11.360;2022-12-07T06:58:46;6.70;99.90
5639;DHT22;2841;44.526;11.360;2022-12-07T07:01:15;6.70;99.90
5639;DHT22;2841;44.526;11.360;2022-12-07T07:03:42;6.80;99.90
5639;DHT22;2841;44.526;11.360;2022-12-07T07:06:09;6.90;99.90
5639;DHT22;2841;44.526;11.360;2022-12-07T07:08:38;7.00;99.90
5639;DHT22;2841;44.526;11.360;2022-12-07T07:11:07;7.10;99.90
5639;DHT22;2841;44.526;11.360;2022-12-07T07:13:35;7.00;99.90
5639;DHT22;2841;44.526;11.360;2022-12-07T07:16:03;6.90;99.90
5639;DHT22;2841;44.526;11.360;2022-12-07T07:18:30;6.80;99.90
5639;DHT22;2841;44.526;11.360;2022-12-07T07:20:57;6.80;99.90
5639;DHT22;2841;44.526;11.360;2022-12-07T07:23:24;6.80;99.90
5639;DHT22;2841;44.526;11.360;2022-12-07T07:25:53;6.80;99.90
5639;DHT22;2841;44.526;11.360;2022-12-07T07:28:20;6.80;99.90
5639;DHT22;2841;44.526;11.360;2022-12-07T07:30:47;6.80;99.90
5639;DHT22;2841;44.526;11.360;2022-12-07T07:33:14;6.80;99.90
5639;DHT22;2841;44.526;11.360;2022-12-07T07:35:41;6.70;99.90
5639;DHT22;2841;44.526;11.360;2022-12-07T07:38:09;6.70;99.90
5639;DHT22;2841;44.526;11.360;2022-12-07T07:40:36;6.70;99.90
5639;DHT22;2841;44.526;11.360;2022-12-07T07:43:05;6.70;99.90
5639;DHT22;2841;44.526;11.360;2022-12-07T07:45:32;6.70;99.90
5639;DHT22;2841;44.526;11.360;2022-12-07T07:47:59;6.70;99.90
5639;DHT22;2841;44.526;11.360;2022-12-07T07:50:26;6.70;99.90
5639;DHT22;2841;44.526;11.360;2022-12-07T07:52:53;6.60;99.90
5639;DHT22;2841;44.526;11.360;2022-12-07T07:55:20;6.60;99.90
5639;DHT22;2841;44.526;11.360;2022-12-07T07:57:47;6.60;99.90
5639;DHT22;2841;44.526;11.360;2022-12-07T08:00:16;6.60;99.90
5639;DHT22;2841;44.526;11.360;2022-12-07T08:02:44;6.60;99.90
5639;DHT22;2841;44.526;11.360;2022-12-07T08:05:12;6.60;99.90
5639;DHT22;2841;44.526;11.360;2022-12-07T08:07:39;6.60;99.90
5639;DHT22;2841;44.526;11.360;2022-12-07T08:10:08;6.60;99.90
5639;DHT22;2841;44.526;11.360;2022-12-07T08:12:36;6.60;99.90
5639;DHT22;2841;44.526;11.360;2022-12-07T08:15:26;6.60;99.90
5639;DHT22;2841;44.526;11.360;2022-12-07T08:17:53;6.60;99.90
5639;DHT22;2841;44.526;11.360;2022-12-07T08:20:21;6.60;99.90
5639;DHT22;2841;44.526;11.360;2022-12-07T08:22:48;6.70;99.90
5639;DHT22;2841;44.526;11.360;2022-12-07T08:25:15;6.70;99.90
5639;DHT22;2841;44.526;11.360;2022-12-07T08:27:43;6.70;99.90
5639;DHT22;2841;44.526;11.360;2022-12-07T08:30:11;6.70;99.90
5639;DHT22;2841;44.526;11.360;2022-12-07T08:32:39;6.70;99.90
5639;DHT22;2841;44.526;11.360;2022-12-07T08:35:08;6.70;99.90
5639;DHT22;2841;44.526;11.360;2022-12-07T08:37:35;6.70;99.90
5639;DHT22;2841;44.526;11.360;2022-12-07T08:40:03;6.80;99.90
5639;DHT22;2841;44.526;11.360;2022-12-07T08:42:30;6.80;99.90
5639;DHT22;2841;44.526;11.360;2022-12-07T08:45:06;6.90;99.90
5639;DHT22;2841;44.526;11.360;2022-12-07T08:47:34;7.00;99.90
5639;DHT22;2841;44.526;11.360;2022-12-07T08:50:06;7.00;99.90
5639;DHT22;2841;44.526;11.360;2022-12-07T08:52:34;6.90;99.90
5639;DHT22;2841;44.526;11.360;2022-12-07T08:55:04;7.00;99.90
5639;DHT22;2841;44.526;11.360;2022-12-07T08:57:32;7.00;99.90
5639;DHT22;2841;44.526;11.360;2022-12-07T09:00:02;7.10;99.90
5639;DHT22;2841;44.526;11.360;2022-12-07T09:02:30;7.10;99.90
5639;DHT22;2841;44.526;11.360;2022-12-07T09:04:57;7.10;99.90
5639;DHT22;2841;44.526;11.360;2022-12-07T09:07:26;7.10;99.90
5639;DHT22;2841;44.526;11.360;2022-12-07T09:09:53;7.10;99.90
5639;DHT22;2841;44.526;11.360;2022-12-07T09:12:21;7.20;99.90
5639;DHT22;2841;44.526;11.360;2022-12-07T09:14:48;7.20;99.90
5639;DHT22;2841;44.526;11.360;2022-12-07T09:17:15;7.30;99.90
5639;DHT22;2841;44.526;11.360;2022-12-07T09:19:42;7.30;99.90
5639;DHT22;2841;44.526;11.360;2022-12-07T09:22:10;7.40;99.90
5639;DHT22;2841;44.526;11.360;2022-12-07T09:24:38;7.40;99.90
5639;DHT22;2841;44.526;11.360;2022-12-07T09:27:05;7.30;99.90
5639;DHT22;2841;44.526;11.360;2022-12-07T09:29:32;7.30;99.90
5639;DHT22;2841;44.526;11.360;2022-12-07T09:32:00;7.30;99.90
5639;DHT22;2841;44.526;11.360;2022-12-07T09:34:27;7.30;99.90
5639;DHT22;2841;44.526;11.360;2022-12-07T09:36:54;7.30;99.90
5639;DHT22;2841;44.526;11.360;2022-12-07T09:39:21;7.40;99.90
5639;DHT22;2841;44.526;11.360;2022-12-07T09:41:49;7.40;99.90
5639;DHT22;2841;44.526;11.360;2022-12-07T09:44:20;7.40;99.90
5639;DHT22;2841;44.526;11.360;2022-12-07T09:46:48;7.40;99.90
5639;DHT22;2841;44.526;11.360;2022-12-07T09:49:19;7.50;99.90
5639;DHT22;2841;44.526;11.360;2022-12-07T09:51:46;7.60;99.90
5639;DHT22;2841;44.526;11.360;2022-12-07T09:54:15;7.60;99.90
5639;DHT22;2841;44.526;11.360;2022-12-07T09:56:43;7.60;99.90
5639;DHT22;2841;44.526;11.360;2022-12-07T09:59:16;7.60;99.90
5639;DHT22;2841;44.526;11.360;2022-12-07T10:01:46;7.70;99.90
5639;DHT22;2841;44.526;11.360;2022-12-07T10:04:16;7.80;99.90
5639;DHT22;2841;44.526;11.360;2022-12-07T10:06:44;7.90;99.90
5639;DHT22;2841;44.526;11.360;2022-12-07T10:09:12;8.00;99.90
5639;DHT22;2841;44.526;11.360;2022-12-07T10:12:02;8.00;99.90
5639;DHT22;2841;44.526;11.360;2022-12-07T10:14:34;8.10;99.90
5639;DHT22;2841;44.526;11.360;2022-12-07T10:17:01;8.10;99.90
5639;DHT22;2841;44.526;11.360;2022-12-07T10:19:29;8.10;99.90
5639;DHT22;2841;44.526;11.360;2022-12-07T10:22:04;8.10;99.90
5639;DHT22;2841;44.526;11.360;2022-12-07T10:24:31;8.20;99.90
5639;DHT22;2841;44.526;11.360;2022-12-07T10:26:59;8.20;99.90
5639;DHT22;2841;44.526;11.360;2022-12-07T10:29:29;8.20;99.90
5639;DHT22;2841;44.526;11.360;2022-12-07T10:32:00;8.20;99.90
5639;DHT22;2841;44.526;11.360;2022-12-07T10:34:29;8.20;99.90
5639;DHT22;2841;44.526;11.360;2022-12-07T10:37:18;8.30;99.90
5639;DHT22;2841;44.526;11.360;2022-12-07T10:39:46;8.30;99.90
5639;DHT22;2841;44.526;11.360;2022-12-07T10:42:18;8.20;99.90
5639;DHT22;2841;44.526;11.360;2022-12-07T10:44:46;8.20;99.90
5639;DHT22;2841;44.526;11.360;2022-12-07T10:47:34;8.30;99.90
5639;DHT22;2841;44.526;11.360;2022-12-07T10:50:28;8.40;99.90
5639;DHT22;2841;44.526;11.360;2022-12-07T10:53:10;8.50;99.90
5639;DHT22;2841;44.526;11.360;2022-12-07T10:58:43;8.60;99.90
5639;DHT22;2841;44.526;11.360;2022-12-07T11:01:23;8.70;99.90
5639;DHT22;2841;44.526;11.360;2022-12-07T11:04:10;8.60;99.90
5639;DHT22;2841;44.526;11.360;2022-12-07T11:06:44;8.60;99.90
5639;DHT22;2841;44.526;11.360;2022-12-07T11:12:33;8.70;99.90
5639;DHT22;2841;44.526;11.360;2022-12-07T11:15:10;8.80;99.90
5639;DHT22;2841;44.526;11.360;2022-12-07T11:17:45;8.90;99.90
5639;DHT22;2841;44.526;11.360;2022-12-07T11:20:29;8.90;99.90
5639;DHT22;2841;44.526;11.360;2022-12-07T11:23:03;8.90;99.90
5639;DHT22;2841;44.526;11.360;2022-12-07T11:25:39;9.00;99.90
5639;DHT22;2841;44.526;11.360;2022-12-07T11:28:23;9.00;99.90
5639;DHT22;2841;44.526;11.360;2022-12-07T11:31:00;9.00;99.90
5639;DHT22;2841;44.526;11.360;2022-12-07T11:33:33;9.00;99.90
5639;DHT22;2841;44.526;11.360;2022-12-07T11:36:15;9.00;99.90
5639;DHT22;2841;44.526;11.360;2022-12-07T11:38:47;8.90;99.90
5639;DHT22;2841;44.526;11.360;2022-12-07T11:41:22;8.90;99.90
5639;DHT22;2841;44.526;11.360;2022-12-07T11:43:55;8.90;99.90
5639;DHT22;2841;44.526;11.360;2022-12-07T11:46:25;8.90;99.90
5639;DHT22;2841;44.526;11.360;2022-12-07T11:49:01;9.00;99.90
5639;DHT22;2841;44.526;11.360;2022-12-07T11:51:34;9.00;99.90
5639;DHT22;2841;44.526;11.360;2022-12-07T11:54:05;9.00;99.90
5639;DHT22;2841;44.526;11.360;2022-12-07T11:56:38;9.10;99.90
5639;DHT22;2841;44.526;11.360;2022-12-07T11:59:11;9.10;99.90
5639;DHT22;2841;44.526;11.360;2022-12-07T12:01:50;9.10;99.90
5639;DHT22;2841;44.526;11.360;2022-12-07T12:04:25;9.20;99.90
5639;DHT22;2841;44.526;11.360;2022-12-07T12:06:55;9.20;99.90
5639;DHT22;2841;44.526;11.360;2022-12-07T12:09:26;9.20;99.90
5639;DHT22;2841;44.526;11.360;2022-12-07T12:15:19;9.20;99.90
5639;DHT22;2841;44.526;11.360;2022-12-07T12:17:57;9.30;99.90
5639;DHT22;2841;44.526;11.360;2022-12-07T12:20:29;9.30;99.90
5639;DHT22;2841;44.526;11.360;2022-12-07T12:23:04;9.30;99.90
5639;DHT22;2841;44.526;11.360;2022-12-07T12:25:38;9.40;99.90
5639;DHT22;2841;44.526;11.360;2022-12-07T12:28:20;9.40;99.90
5639;DHT22;2841;44.526;11.360;2022-12-07T12:31:05;9.30;99.90
5639;DHT22;2841;44.526;11.360;2022-12-07T12:33:33;9.30;99.90
5639;DHT22;2841;44.526;11.360;2022-12-07T12:36:18;9.30;99.90
5639;DHT22;2841;44.526;11.360;2022-12-07T12:39:07;9.50;99.90
5639;DHT22;2841;44.526;11.360;2022-12-07T12:42:17;9.50;99.90
5639;DHT22;2841;44.526;11.360;2022-12-07T12:45:19;9.50;99.90
5639;DHT22;2841;44.526;11.360;2022-12-07T12:47:57;9.70;99.90
5639;DHT22;2841;44.526;11.360;2022-12-07T12:50:30;9.80;99.90
5639;DHT22;2841;44.526;11.360;2022-12-07T12:53:12;9.90;99.90
5639;DHT22;2841;44.526;11.360;2022-12-07T12:58:37;10.10;99.90
5639;DHT22;2841;44.526;11.360;2022-12-07T13:04:49;10.40;99.90
5639;DHT22;2841;44.526;11.360;2022-12-07T13:07:52;10.50;99.90
5639;DHT22;2841;44.526;11.360;2022-12-07T13:10:36;10.60;99.90
5639;DHT22;2841;44.526;11.360;2022-12-07T13:13:30;10.60;99.90
5639;DHT22;2841;44.526;11.360;2022-12-07T13:18:57;10.50;99.90
5639;DHT22;2841;44.526;11.360;2022-12-07T13:21:51;10.30;99.90
5639;DHT22;2841;44.526;11.360;2022-12-07T13:24:18;10.40;99.90
5639;DHT22;2841;44.526;11.360;2022-12-07T13:26:47;10.60;99.90
5639;DHT22;2841;44.526;11.360;2022-12-07T13:29:17;10.60;99.90
5639;DHT22;2841;44.526;11.360;2022-12-07T13:31:47;10.80;99.90
5639;DHT22;2841;44.526;11.360;2022-12-07T13:34:29;10.90;99.90
5639;DHT22;2841;44.526;11.360;2022-12-07T13:36:57;10.90;99.90
5639;DHT22;2841;44.526;11.360;2022-12-07T13:39:26;10.80;99.90
5639;DHT22;2841;44.526;11.360;2022-12-07T13:41:54;10.80;99.90
5639;DHT22;2841;44.526;11.360;2022-12-07T13:44:24;10.90;99.90
5639;DHT22;2841;44.526;11.360;2022-12-07T13:46:57;11.00;99.90
5639;DHT22;2841;44.526;11.360;2022-12-07T13:49:27;11.10;99.90
5639;DHT22;2841;44.526;11.360;2022-12-07T13:52:12;11.30;99.90
5639;DHT22;2841;44.526;11.360;2022-12-07T13:54:44;12.50;99.90
5639;DHT22;2841;44.526;11.360;2022-12-07T13:57:12;12.50;99.90
5639;DHT22;2841;44.526;11.360;2022-12-07T13:59:40;12.60;99.90
5639;DHT22;2841;44.526;11.360;2022-12-07T14:02:18;12.30;99.90
5639;DHT22;2841;44.526;11.360;2022-12-07T14:04:47;11.90;99.90
5639;DHT22;2841;44.526;11.360;2022-12-07T14:07:21;11.90;99.90
5639;DHT22;2841;44.526;11.360;2022-12-07T14:09:56;11.60;99.90
5639;DHT22;2841;44.526;11.360;2022-12-07T14:12:24;11.20;99.90
5639;DHT22;2841;44.526;11.360;2022-12-07T14:14:54;10.80;99.90
5639;DHT22;2841;44.526;11.360;2022-12-07T14:17:24;10.60;99.90
5639;DHT22;2841;44.526;11.360;2022-12-07T14:19:52;10.60;99.90
5639;DHT22;2841;44.526;11.360;2022-12-07T14:22:29;10.50;99.90
5639;DHT22;2841;44.526;11.360;2022-12-07T14:25:17;10.50;99.90
5639;DHT22;2841;44.526;11.360;2022-12-07T14:27:53;10.50;99.90
5639;DHT22;2841;44.526;11.360;2022-12-07T14:30:25;10.50;99.90
5639;DHT22;2841;44.526;11.360;2022-12-07T14:32:55;10.50;99.90
5639;DHT22;2841;44.526;11.360;2022-12-07T14:35:23;10.40;99.90
5639;DHT22;2841;44.526;11.360;2022-12-07T14:37:51;10.20;99.90
5639;DHT22;2841;44.526;11.360;2022-12-07T14:40:21;10.00;99.90
5639;DHT22;2841;44.526;11.360;2022-12-07T14:42:51;9.90;99.90
5639;DHT22;2841;44.526;11.360;2022-12-07T14:45:20;9.80;99.90
5639;DHT22;2841;44.526;11.360;2022-12-07T14:47:49;9.60;99.90
5639;DHT22;2841;44.526;11.360;2022-12-07T14:50:17;9.40;99.90
5639;DHT22;2841;44.526;11.360;2022-12-07T14:52:48;9.30;99.90
5639;DHT22;2841;44.526;11.360;2022-12-07T14:55:20;9.20;99.90
5639;DHT22;2841;44.526;11.360;2022-12-07T14:57:49;9.10;99.90
5639;DHT22;2841;44.526;11.360;2022-12-07T15:00:17;9.00;99.90
5639;DHT22;2841;44.526;11.360;2022-12-07T15:02:46;8.90;99.90
5639;DHT22;2841;44.526;11.360;2022-12-07T15:05:15;8.80;99.90
5639;DHT22;2841;44.526;11.360;2022-12-07T15:07:42;8.80;99.90
5639;DHT22;2841;44.526;11.360;2022-12-07T15:10:15;8.70;99.90
5639;DHT22;2841;44.526;11.360;2022-12-07T15:12:43;8.70;99.90
5639;DHT22;2841;44.526;11.360;2022-12-07T15:15:10;8.60;99.90
5639;DHT22;2841;44.526;11.360;2022-12-07T15:17:37;8.50;99.90
5639;DHT22;2841;44.526;11.360;2022-12-07T15:20:07;8.40;99.90
5639;DHT22;2841;44.526;11.360;2022-12-07T15:22:38;8.30;99.90
5639;DHT22;2841;44.526;11.360;2022-12-07T15:25:06;8.20;99.90
5639;DHT22;2841;44.526;11.360;2022-12-07T15:27:33;8.20;99.90
5639;DHT22;2841;44.526;11.360;2022-12-07T15:30:00;8.10;99.90
5639;DHT22;2841;44.526;11.360;2022-12-07T15:32:28;8.10;99.90
5639;DHT22;2841;44.526;11.360;2022-12-07T15:34:55;8.00;99.90
5639;DHT22;2841;44.526;11.360;2022-12-07T15:37:22;8.00;99.90
5639;DHT22;2841;44.526;11.360;2022-12-07T15:39:50;8.00;99.90
5639;DHT22;2841;44.526;11.360;2022-12-07T15:42:17;8.00;99.90
5639;DHT22;2841;44.526;11.360;2022-12-07T15:44:45;7.90;99.90
5639;DHT22;2841;44.526;11.360;2022-12-07T15:47:29;7.90;99.90
5639;DHT22;2841;44.526;11.360;2022-12-07T15:49:56;7.90;99.90
5639;DHT22;2841;44.526;11.360;2022-12-07T15:52:23;7.80;99.90
5639;DHT22;2841;44.526;11.360;2022-12-07T15:54:53;7.80;99.90
5639;DHT22;2841;44.526;11.360;2022-12-07T15:57:20;7.80;99.90
5639;DHT22;2841;44.526;11.360;2022-12-07T15:59:47;7.70;99.90
5639;DHT22;2841;44.526;11.360;2022-12-07T16:02:14;7.70;99.90
5639;DHT22;2841;44.526;11.360;2022-12-07T16:04:42;7.60;99.90
5639;DHT22;2841;44.526;11.360;2022-12-07T16:07:09;7.60;99.90
5639;DHT22;2841;44.526;11.360;2022-12-07T16:09:37;7.50;99.90
5639;DHT22;2841;44.526;11.360;2022-12-07T16:12:06;7.50;99.90
5639;DHT22;2841;44.526;11.360;2022-12-07T16:14:34;7.50;99.90
5639;DHT22;2841;44.526;11.360;2022-12-07T16:17:01;7.50;99.90
5639;DHT22;2841;44.526;11.360;2022-12-07T16:19:30;7.40;99.90
5639;DHT22;2841;44.526;11.360;2022-12-07T16:21:57;7.40;99.90
5639;DHT22;2841;44.526;11.360;2022-12-07T16:24:24;7.30;99.90
5639;DHT22;2841;44.526;11.360;2022-12-07T16:26:51;7.20;99.90
5639;DHT22;2841;44.526;11.360;2022-12-07T16:29:20;7.20;99.90
5639;DHT22;2841;44.526;11.360;2022-12-07T16:31:50;7.20;99.90
5639;DHT22;2841;44.526;11.360;2022-12-07T16:34:17;7.20;99.90
5639;DHT22;2841;44.526;11.360;2022-12-07T16:36:44;7.20;99.90
5639;DHT22;2841;44.526;11.360;2022-12-07T16:39:12;7.10;99.90
5639;DHT22;2841;44.526;11.360;2022-12-07T16:41:39;7.10;99.90